createdAt,value
2023-03-02T00:01:43.734Z,3.50
2023-03-02T00:04:16.162Z,3.70
2023-03-02T00:06:43.219Z,3.50
2023-03-02T00:09:09.843Z,3.50
2023-03-02T00:11:38.026Z,3.10
2023-03-02T00:14:05.417Z,3.20
2023-03-02T00:16:32.505Z,3.20
2023-03-02T00:18:59.261Z,3.10
2023-03-02T00:21:25.921Z,3.20
2023-03-02T00:23:53.086Z,3.40
2023-03-02T00:26:20.133Z,3.30
2023-03-02T00:28:47.026Z,3.10
2023-03-02T00:31:13.795Z,3.10
2023-03-02T00:33:40.510Z,3.10
2023-03-02T00:36:14.150Z,3.20
2023-03-02T00:38:40.742Z,3.20
2023-03-02T00:41:07.318Z,3.30
2023-03-02T00:43:33.922Z,3.20
2023-03-02T00:46:08.073Z,3.30
2023-03-02T00:48:34.706Z,3.20
2023-03-02T00:51:01.580Z,3.50
2023-03-02T00:53:28.184Z,1.80
2023-03-02T00:55:55.352Z,3.20
2023-03-02T00:58:22.488Z,3.00
2023-03-02T01:00:49.205Z,3.00
2023-03-02T01:03:15.899Z,2.90
2023-03-02T01:05:42.504Z,3.00
2023-03-02T01:08:09.086Z,3.00
2023-03-02T01:10:36.010Z,2.90
2023-03-02T01:13:02.676Z,2.90
2023-03-02T01:15:29.283Z,2.90
2023-03-02T01:17:55.868Z,3.10
2023-03-02T01:20:22.486Z,3.20
2023-03-02T01:22:49.119Z,2.90
2023-03-02T01:25:15.776Z,3.30
2023-03-02T01:27:42.366Z,3.20
2023-03-02T01:30:09.819Z,3.30
2023-03-02T01:32:36.451Z,3.30
2023-03-02T01:35:03.321Z,3.30
2023-03-02T01:37:29.923Z,3.40
2023-03-02T01:39:56.579Z,3.40
2023-03-02T01:42:23.640Z,3.40
2023-03-02T01:44:56.955Z,2.60
2023-03-02T01:47:32.202Z,3.30
2023-03-02T01:50:02.783Z,3.30
2023-03-02T01:52:32.471Z,3.20
2023-03-02T01:55:03.327Z,3.30
2023-03-02T01:57:32.887Z,3.30
2023-03-02T02:00:08.494Z,3.10
2023-03-02T02:02:36.438Z,3.00
2023-03-02T02:05:04.072Z,2.90
2023-03-02T02:07:31.185Z,2.80
2023-03-02T02:09:58.016Z,2.80
2023-03-02T02:12:24.658Z,2.70
2023-03-02T02:14:51.735Z,2.70
2023-03-02T02:17:19.591Z,1.10
2023-03-02T02:20:09.669Z,2.70
2023-03-02T02:23:08.441Z,2.70
2023-03-02T02:25:58.350Z,2.80
2023-03-02T02:28:58.636Z,2.50
2023-03-02T02:31:48.348Z,2.60
2023-03-02T02:34:22.527Z,2.50
2023-03-02T02:36:53.997Z,2.50
2023-03-02T02:39:26.456Z,2.50
2023-03-02T02:41:57.577Z,2.30
2023-03-02T02:44:24.297Z,2.40
2023-03-02T02:46:50.985Z,2.50
2023-03-02T02:49:31.357Z,2.70
2023-03-02T02:51:59.236Z,2.70
2023-03-02T02:54:27.646Z,2.80
2023-03-02T02:56:55.006Z,2.80
2023-03-02T02:59:29.058Z,2.80
2023-03-02T03:01:56.451Z,2.80
2023-03-02T03:04:28.243Z,2.80
2023-03-02T03:07:04.012Z,2.90
2023-03-02T03:09:31.683Z,2.70
2023-03-02T03:12:03.857Z,2.50
2023-03-02T03:14:39.616Z,2.30
2023-03-02T03:17:11.931Z,2.40
2023-03-02T03:19:41.537Z,2.40
2023-03-02T03:22:11.842Z,2.60
2023-03-02T03:24:40.036Z,2.50
2023-03-02T03:27:08.668Z,2.50
2023-03-02T03:29:37.325Z,2.50
2023-03-02T03:32:05.366Z,2.70
2023-03-02T03:34:32.396Z,2.60
2023-03-02T03:37:02.093Z,2.70
2023-03-02T03:39:30.160Z,2.60
2023-03-02T03:41:56.900Z,2.50
2023-03-02T03:44:23.893Z,2.40
2023-03-02T03:46:50.745Z,2.50
2023-03-02T03:49:17.866Z,2.60
2023-03-02T03:51:44.563Z,2.60
2023-03-02T03:54:11.418Z,2.70
2023-03-02T03:56:45.007Z,2.50
2023-03-02T03:59:16.138Z,2.50
2023-03-02T04:01:46.913Z,2.50
2023-03-02T04:04:17.510Z,2.40
2023-03-02T04:06:44.826Z,2.40
2023-03-02T04:09:12.777Z,2.40
2023-03-02T04:11:42.057Z,2.60
2023-03-02T04:14:09.064Z,2.50
2023-03-02T04:16:36.806Z,2.60
2023-03-02T04:19:10.705Z,2.40
2023-03-02T04:21:45.004Z,2.50
2023-03-02T04:24:12.515Z,2.60
2023-03-02T04:26:41.599Z,2.70
2023-03-02T04:29:09.454Z,2.70
2023-03-02T04:31:36.367Z,2.60
2023-03-02T04:34:06.335Z,2.40
2023-03-02T04:36:35.963Z,2.40
2023-03-02T04:39:04.722Z,2.40
2023-03-02T04:41:31.567Z,2.60
2023-03-02T04:43:58.208Z,2.80
2023-03-02T04:46:27.006Z,2.70
2023-03-02T04:48:54.405Z,2.80
2023-03-02T04:51:27.798Z,2.80
2023-03-02T04:53:56.918Z,2.80
2023-03-02T04:56:24.167Z,2.80
2023-03-02T04:58:51.174Z,2.80
2023-03-02T05:01:19.788Z,4.50
2023-03-02T05:03:47.361Z,2.70
2023-03-02T05:06:15.080Z,2.90
2023-03-02T05:08:41.815Z,2.60
2023-03-02T05:11:10.385Z,2.60
2023-03-02T05:13:37.020Z,2.80
2023-03-02T05:16:04.218Z,2.70
2023-03-02T05:18:31.389Z,2.60
2023-03-02T05:20:58.021Z,2.30
2023-03-02T05:23:25.644Z,2.20
2023-03-02T05:25:53.796Z,2.30
2023-03-02T05:28:21.608Z,2.50
2023-03-02T05:30:48.827Z,2.30
2023-03-02T05:33:16.164Z,2.30
2023-03-02T05:35:43.231Z,2.30
2023-03-02T05:38:09.968Z,2.20
2023-03-02T05:40:36.712Z,2.10
2023-03-02T05:43:03.820Z,2.20
2023-03-02T05:45:36.626Z,2.30
2023-03-02T05:48:03.537Z,1.20
2023-03-02T05:50:30.334Z,2.40
2023-03-02T05:52:58.335Z,2.20
2023-03-02T05:55:24.951Z,2.30
2023-03-02T05:57:51.670Z,2.30
2023-03-02T06:00:19.390Z,2.40
2023-03-02T06:02:46.133Z,2.50
2023-03-02T06:05:16.590Z,2.50
2023-03-02T06:07:44.207Z,2.50
2023-03-02T06:10:12.379Z,2.60
2023-03-02T06:12:39.115Z,2.60
2023-03-02T06:15:07.040Z,2.70
2023-03-02T06:17:34.245Z,2.40
2023-03-02T06:20:00.910Z,2.40
2023-03-02T06:22:27.530Z,2.50
2023-03-02T06:24:55.274Z,2.30
2023-03-02T06:27:22.046Z,2.30
2023-03-02T06:29:48.980Z,2.40
2023-03-02T06:32:15.950Z,2.50
2023-03-02T06:34:42.759Z,2.50
2023-03-02T06:37:09.553Z,2.50
2023-03-02T06:39:36.273Z,2.40
2023-03-02T06:42:02.983Z,2.40
2023-03-02T06:44:29.720Z,2.50
2023-03-02T06:46:56.476Z,2.60
2023-03-02T06:49:24.484Z,2.70
2023-03-02T06:51:51.127Z,2.80
2023-03-02T06:54:17.852Z,2.80
2023-03-02T06:56:44.685Z,2.80
2023-03-02T06:59:11.369Z,2.60
2023-03-02T07:01:38.135Z,1.40
2023-03-02T07:04:05.136Z,3.20
2023-03-02T07:06:31.835Z,3.20
2023-03-02T07:08:58.406Z,3.20
2023-03-02T07:11:25.161Z,2.90
2023-03-02T07:13:52.036Z,2.80
2023-03-02T07:16:18.924Z,3.50
2023-03-02T07:18:45.668Z,3.00
2023-03-02T07:21:12.317Z,2.80
2023-03-02T07:23:38.977Z,2.90
2023-03-02T07:26:08.415Z,2.90
2023-03-02T07:28:37.000Z,2.90
2023-03-02T07:31:03.884Z,2.70
2023-03-02T07:33:30.683Z,2.70
2023-03-02T07:35:57.523Z,2.60
2023-03-02T07:38:24.197Z,2.70
2023-03-02T07:40:51.726Z,2.60
2023-03-02T07:43:18.396Z,2.60
2023-03-02T07:45:45.450Z,2.70
2023-03-02T07:48:12.255Z,2.70
2023-03-02T07:50:38.905Z,2.80
2023-03-02T07:53:05.568Z,2.90
2023-03-02T07:55:32.324Z,4.40
2023-03-02T07:57:58.921Z,2.70
2023-03-02T08:00:25.769Z,2.80
2023-03-02T08:02:52.424Z,2.70
2023-03-02T08:05:19.125Z,2.60
2023-03-02T08:07:46.896Z,4.10
2023-03-02T08:10:13.545Z,4.70
2023-03-02T08:12:40.518Z,2.50
2023-03-02T08:15:07.682Z,2.60
2023-03-02T08:17:34.317Z,2.60
2023-03-02T08:20:01.027Z,2.60
2023-03-02T08:22:27.671Z,2.70
2023-03-02T08:24:54.277Z,2.80
2023-03-02T08:27:20.881Z,2.90
2023-03-02T08:29:47.504Z,3.10
2023-03-02T08:32:14.198Z,3.10
2023-03-02T08:34:40.944Z,3.10
2023-03-02T08:37:07.728Z,2.90
2023-03-02T08:39:34.360Z,2.90
2023-03-02T08:42:01.227Z,3.00
2023-03-02T08:44:27.784Z,2.70
2023-03-02T08:46:55.061Z,2.60
2023-03-02T08:49:22.050Z,2.60
2023-03-02T08:51:53.348Z,2.70
2023-03-02T08:54:20.849Z,2.70
2023-03-02T08:56:48.760Z,3.00
2023-03-02T08:59:15.845Z,2.80
2023-03-02T09:01:42.846Z,2.80
2023-03-02T09:04:11.115Z,2.90
2023-03-02T09:06:40.923Z,2.70
2023-03-02T09:09:09.571Z,2.70
2023-03-02T09:11:36.713Z,2.80
2023-03-02T09:14:03.710Z,2.80
2023-03-02T09:16:30.973Z,2.80
2023-03-02T09:18:58.074Z,2.80
2023-03-02T09:21:24.767Z,3.10
2023-03-02T09:23:55.772Z,3.30
2023-03-02T09:26:22.843Z,3.40
2023-03-02T09:28:49.509Z,3.10
2023-03-02T09:31:16.276Z,3.00
2023-03-02T09:33:42.930Z,3.00
2023-03-02T09:36:11.601Z,2.90
2023-03-02T09:38:38.505Z,2.90
2023-03-02T09:41:20.481Z,2.90
2023-03-02T09:44:09.828Z,3.10
2023-03-02T09:46:45.928Z,3.10
2023-03-02T09:49:32.732Z,3.10
2023-03-02T09:52:32.049Z,3.20
2023-03-02T09:55:32.449Z,3.10
2023-03-02T09:58:02.440Z,3.20
2023-03-02T10:00:36.730Z,3.20
2023-03-02T10:03:16.643Z,3.30
2023-03-02T10:05:47.720Z,3.70
2023-03-02T10:08:18.230Z,4.00
2023-03-02T10:10:49.200Z,4.30
2023-03-02T10:13:37.155Z,4.10
2023-03-02T10:16:21.537Z,4.00
2023-03-02T10:19:18.618Z,3.70
2023-03-02T10:21:56.381Z,3.60
2023-03-02T10:24:38.152Z,3.50
2023-03-02T10:27:17.900Z,3.50
2023-03-02T10:30:03.119Z,3.60
2023-03-02T10:32:37.769Z,3.70
2023-03-02T10:35:16.114Z,3.70
2023-03-02T10:37:42.892Z,6.00
2023-03-02T10:40:43.558Z,3.80
2023-03-02T10:43:31.998Z,3.80
2023-03-02T10:46:05.089Z,3.80
2023-03-02T10:48:31.891Z,3.90
2023-03-02T10:51:00.340Z,3.80
2023-03-02T10:53:27.176Z,3.60
2023-03-02T10:55:54.305Z,4.50
2023-03-02T10:58:32.718Z,3.80
2023-03-02T11:01:18.237Z,3.80
2023-03-02T11:04:01.746Z,3.70
2023-03-02T11:06:30.001Z,3.90
2023-03-02T11:09:00.505Z,3.90
2023-03-02T11:11:27.450Z,3.70
2023-03-02T11:13:56.362Z,3.90
2023-03-02T11:16:28.438Z,2.60
2023-03-02T11:18:57.874Z,3.80
2023-03-02T11:21:55.434Z,3.90
2023-03-02T11:24:33.233Z,3.90
2023-03-02T11:27:13.810Z,3.90
2023-03-02T11:30:00.798Z,3.90
2023-03-02T11:32:52.645Z,4.00
2023-03-02T11:35:28.621Z,4.00
2023-03-02T11:37:59.555Z,3.80
2023-03-02T11:40:50.178Z,3.80
2023-03-02T11:43:16.851Z,4.00
2023-03-02T11:45:58.820Z,4.20
2023-03-02T11:48:49.081Z,2.60
2023-03-02T11:51:24.415Z,4.30
2023-03-02T11:54:02.677Z,4.40
2023-03-02T11:56:36.612Z,4.40
2023-03-02T11:59:11.245Z,4.30
2023-03-02T12:01:40.316Z,4.40
2023-03-02T12:04:09.879Z,4.40
2023-03-02T12:06:41.999Z,4.30
2023-03-02T12:09:23.704Z,4.20
2023-03-02T12:12:18.502Z,4.30
2023-03-02T12:14:45.193Z,4.30
2023-03-02T12:17:22.350Z,4.30
2023-03-02T12:19:50.783Z,4.50
2023-03-02T12:22:28.062Z,4.40
2023-03-02T12:25:06.978Z,4.00
2023-03-02T12:27:38.135Z,4.20
2023-03-02T12:30:16.911Z,4.30
2023-03-02T12:33:00.847Z,4.50
2023-03-02T12:35:30.347Z,4.40
2023-03-02T12:38:00.767Z,4.10
2023-03-02T12:40:51.234Z,4.30
2023-03-02T12:43:31.081Z,4.40
2023-03-02T12:46:25.944Z,4.60
2023-03-02T12:48:58.188Z,4.60
2023-03-02T12:51:27.342Z,4.80
2023-03-02T12:54:12.393Z,4.80
2023-03-02T12:56:39.231Z,4.60
2023-03-02T12:59:06.221Z,4.70
2023-03-02T13:01:34.207Z,4.80
2023-03-02T13:04:00.867Z,4.90
2023-03-02T13:06:31.658Z,5.00
2023-03-02T13:09:00.388Z,6.20
2023-03-02T13:11:31.266Z,5.00
2023-03-02T13:13:59.356Z,4.70
2023-03-02T13:16:29.660Z,4.80
2023-03-02T13:18:59.357Z,5.10
2023-03-02T13:24:46.041Z,4.90
2023-03-02T13:27:18.992Z,5.00
2023-03-02T13:29:45.814Z,4.90
2023-03-02T13:32:23.000Z,4.80
2023-03-02T13:34:58.730Z,4.70
2023-03-02T13:37:43.445Z,4.80
2023-03-02T13:40:22.505Z,4.80
2023-03-02T13:42:49.226Z,4.90
2023-03-02T13:45:23.868Z,5.10
2023-03-02T13:47:50.615Z,5.00
2023-03-02T13:50:22.819Z,4.90
2023-03-02T13:52:50.178Z,4.90
2023-03-02T13:55:19.012Z,4.90
2023-03-02T13:57:47.027Z,5.00
2023-03-02T14:00:16.992Z,5.10
2023-03-02T14:02:43.887Z,5.20
2023-03-02T14:05:17.790Z,5.20
2023-03-02T14:07:44.671Z,5.30
2023-03-02T14:10:11.814Z,5.10
2023-03-02T14:12:41.126Z,5.20
2023-03-02T14:15:10.731Z,5.30
2023-03-02T14:17:37.384Z,5.30
2023-03-02T14:20:04.351Z,5.40
2023-03-02T14:22:31.957Z,5.20
2023-03-02T14:24:58.665Z,5.10
2023-03-02T14:27:29.724Z,5.20
2023-03-02T14:29:56.564Z,5.30
2023-03-02T14:32:23.225Z,5.00
2023-03-02T14:34:49.911Z,5.00
2023-03-02T14:37:23.682Z,5.10
2023-03-02T14:39:54.183Z,5.10
2023-03-02T14:42:22.238Z,5.20
2023-03-02T14:44:50.590Z,5.30
2023-03-02T14:47:19.370Z,5.20
2023-03-02T14:49:46.173Z,5.20
2023-03-02T14:52:38.128Z,5.30
2023-03-02T14:55:15.256Z,5.40
2023-03-02T14:57:41.882Z,5.30
2023-03-02T15:00:13.864Z,5.30
2023-03-02T15:02:41.053Z,5.50
2023-03-02T15:05:08.219Z,5.60
2023-03-02T15:07:34.851Z,5.70
2023-03-02T15:10:01.476Z,5.60
2023-03-02T15:12:28.245Z,5.40
2023-03-02T15:14:54.931Z,5.40
2023-03-02T15:17:21.618Z,5.60
2023-03-02T15:19:48.497Z,5.90
2023-03-02T15:22:15.711Z,5.70
2023-03-02T15:24:42.336Z,5.50
2023-03-02T15:27:08.963Z,5.40
2023-03-02T15:29:35.652Z,5.40
2023-03-02T15:32:02.380Z,5.50
2023-03-02T15:34:29.044Z,5.50
2023-03-02T15:36:55.681Z,5.50
2023-03-02T15:39:22.356Z,5.50
2023-03-02T15:41:48.993Z,5.50
2023-03-02T15:44:22.242Z,5.40
2023-03-02T15:46:50.428Z,5.50
2023-03-02T15:49:21.079Z,5.50
2023-03-02T15:51:47.655Z,5.30
2023-03-02T15:54:15.304Z,5.20
2023-03-02T15:56:44.383Z,6.50
2023-03-02T15:59:12.017Z,4.90
2023-03-02T16:01:38.635Z,4.90
2023-03-02T16:04:05.261Z,4.90
2023-03-02T16:06:31.884Z,4.90
2023-03-02T16:08:58.561Z,5.00
2023-03-02T16:11:25.217Z,5.10
2023-03-02T16:13:52.285Z,5.00
2023-03-02T16:16:20.541Z,5.00
2023-03-02T16:18:55.835Z,5.10
2023-03-02T16:21:23.606Z,5.30
2023-03-02T16:23:51.094Z,5.20
2023-03-02T16:26:19.506Z,5.30
2023-03-02T16:28:46.357Z,5.30
2023-03-02T16:31:17.452Z,5.50
2023-03-02T16:33:44.781Z,5.60
2023-03-02T16:36:12.161Z,5.40
2023-03-02T16:38:38.979Z,5.40
2023-03-02T16:41:15.990Z,5.40
2023-03-02T16:43:51.680Z,5.50
2023-03-02T16:46:19.288Z,5.40
2023-03-02T16:48:47.560Z,5.30
2023-03-02T16:51:14.602Z,5.40
2023-03-02T16:53:41.338Z,5.20
2023-03-02T16:56:10.026Z,5.10
2023-03-02T16:58:38.321Z,5.20
2023-03-02T17:01:06.325Z,5.20
2023-03-02T17:03:34.014Z,5.10
2023-03-02T17:06:01.434Z,5.00
2023-03-02T17:08:28.158Z,3.80
2023-03-02T17:10:54.845Z,5.20
2023-03-02T17:13:21.483Z,5.20
2023-03-02T17:15:48.228Z,5.20
2023-03-02T17:18:14.911Z,5.30
2023-03-02T17:20:41.754Z,5.20
2023-03-02T17:23:08.516Z,5.30
2023-03-02T17:25:35.129Z,5.30
2023-03-02T17:28:01.716Z,5.30
2023-03-02T17:30:28.756Z,5.30
2023-03-02T17:32:55.503Z,5.30
2023-03-02T17:35:22.580Z,5.40
2023-03-02T17:37:49.212Z,5.30
2023-03-02T17:40:18.821Z,5.30
2023-03-02T17:42:45.513Z,5.70
2023-03-02T17:45:24.824Z,5.40
2023-03-02T17:47:53.530Z,5.40
2023-03-02T17:50:21.852Z,5.40
2023-03-02T17:52:48.715Z,5.30
2023-03-02T17:55:15.919Z,5.40
2023-03-02T17:57:43.014Z,5.40
2023-03-02T18:00:14.037Z,5.40
2023-03-02T18:02:40.889Z,5.50
2023-03-02T18:05:10.007Z,5.50
2023-03-02T18:07:37.195Z,5.40
2023-03-02T18:10:05.046Z,5.50
2023-03-02T18:12:31.913Z,5.40
2023-03-02T18:14:58.517Z,5.40
2023-03-02T18:17:25.410Z,5.40
2023-03-02T18:19:52.263Z,5.40
2023-03-02T18:22:19.786Z,5.40
2023-03-02T18:24:47.487Z,5.40
2023-03-02T18:27:14.229Z,5.50
2023-03-02T18:29:40.846Z,5.50
2023-03-02T18:32:07.628Z,5.50
2023-03-02T18:34:34.290Z,5.70
2023-03-02T18:37:00.896Z,5.70
2023-03-02T18:39:27.538Z,5.70
2023-03-02T18:41:54.177Z,5.60
2023-03-02T18:44:20.904Z,5.60
2023-03-02T18:46:47.643Z,5.60
2023-03-02T18:49:14.267Z,5.50
2023-03-02T18:51:40.886Z,5.40
2023-03-02T18:54:07.620Z,5.30
2023-03-02T18:56:34.321Z,5.40
2023-03-02T18:59:01.128Z,5.30
2023-03-02T19:01:31.366Z,5.40
2023-03-02T19:03:59.227Z,5.40
2023-03-02T19:06:26.052Z,5.40
2023-03-02T19:08:52.695Z,5.50
2023-03-02T19:11:19.304Z,5.50
2023-03-02T19:13:46.403Z,5.40
2023-03-02T19:16:14.073Z,5.40
2023-03-02T19:18:40.837Z,5.50
2023-03-02T19:21:07.965Z,5.40
2023-03-02T19:23:34.937Z,6.80
2023-03-02T19:26:01.681Z,5.00
2023-03-02T19:28:28.292Z,5.30
2023-03-02T19:30:54.959Z,5.30
2023-03-02T19:33:24.647Z,5.30
2023-03-02T19:35:51.424Z,5.30
2023-03-02T19:38:19.107Z,5.30
2023-03-02T19:40:45.708Z,5.20
2023-03-02T19:43:12.345Z,5.20
2023-03-02T19:45:38.948Z,5.10
2023-03-02T19:48:06.116Z,5.10
2023-03-02T19:50:33.102Z,5.10
2023-03-02T19:52:59.859Z,5.20
2023-03-02T19:55:27.047Z,5.10
2023-03-02T19:58:00.175Z,5.10
2023-03-02T20:00:29.182Z,5.80
2023-03-02T20:02:57.568Z,5.10
2023-03-02T20:05:26.038Z,5.00
2023-03-02T20:07:53.250Z,5.00
2023-03-02T20:10:31.043Z,4.90
2023-03-02T20:12:59.548Z,5.10
2023-03-02T20:15:30.462Z,4.80
2023-03-02T20:17:59.419Z,4.80
2023-03-02T20:20:27.014Z,4.80
2023-03-02T20:22:53.831Z,4.70
2023-03-02T20:25:21.662Z,4.80
2023-03-02T20:27:49.271Z,4.70
2023-03-02T20:30:20.747Z,4.70
2023-03-02T20:32:47.501Z,4.70
2023-03-02T20:35:14.255Z,4.60
2023-03-02T20:37:41.495Z,4.80
2023-03-02T20:40:09.445Z,4.60
2023-03-02T20:42:36.150Z,4.60
2023-03-02T20:45:04.458Z,4.60
2023-03-02T20:47:31.360Z,4.50
2023-03-02T20:49:58.264Z,4.50
2023-03-02T20:52:25.165Z,4.60
2023-03-02T20:54:51.829Z,4.40
2023-03-02T20:57:20.977Z,4.40
2023-03-02T20:59:48.250Z,4.40
2023-03-02T21:02:17.860Z,4.40
2023-03-02T21:04:44.916Z,4.30
2023-03-02T21:07:12.082Z,4.30
2023-03-02T21:09:38.995Z,6.50
2023-03-02T21:12:08.651Z,4.30
2023-03-02T21:14:35.755Z,4.30
2023-03-02T21:17:03.688Z,4.30
2023-03-02T21:19:30.875Z,4.20
2023-03-02T21:21:57.608Z,4.20
2023-03-02T21:24:24.547Z,4.20
2023-03-02T21:26:53.547Z,4.20
2023-03-02T21:29:22.375Z,4.20
2023-03-02T21:31:49.256Z,4.20
2023-03-02T21:34:16.438Z,4.10
2023-03-02T21:36:43.097Z,4.10
2023-03-02T21:39:10.024Z,4.10
2023-03-02T21:41:36.783Z,4.20
2023-03-02T21:44:05.642Z,4.20
2023-03-02T21:46:33.668Z,4.10
2023-03-02T21:49:00.334Z,4.10
2023-03-02T21:51:26.951Z,4.20
2023-03-02T21:53:53.635Z,4.10
2023-03-02T21:56:24.084Z,4.20
2023-03-02T21:58:52.962Z,4.10
2023-03-02T22:01:20.842Z,4.10
2023-03-02T22:03:47.948Z,4.10
2023-03-02T22:06:20.605Z,4.10
2023-03-02T22:08:47.506Z,4.00
2023-03-02T22:11:22.522Z,4.00
2023-03-02T22:13:50.839Z,4.00
2023-03-02T22:16:23.456Z,3.90
2023-03-02T22:18:55.112Z,3.90
2023-03-02T22:21:28.323Z,3.90
2023-03-02T22:24:10.720Z,4.00
2023-03-02T22:26:41.187Z,4.00
2023-03-02T22:29:17.444Z,4.00
2023-03-02T22:31:49.470Z,3.90
2023-03-02T22:34:25.346Z,3.90
2023-03-02T22:36:56.608Z,3.80
2023-03-02T22:39:32.520Z,3.80
2023-03-02T22:42:12.125Z,3.70
2023-03-02T22:44:39.036Z,3.00
2023-03-02T22:47:20.259Z,3.60
2023-03-02T22:49:52.806Z,3.60
2023-03-02T22:52:23.928Z,3.50
2023-03-02T22:54:51.052Z,3.40
2023-03-02T22:57:27.729Z,1.50
2023-03-02T23:00:20.159Z,3.40
2023-03-02T23:02:46.765Z,3.40
2023-03-02T23:05:29.539Z,3.50
2023-03-02T23:08:20.961Z,3.20
2023-03-02T23:10:47.968Z,3.10
2023-03-02T23:13:17.597Z,3.10
2023-03-02T23:15:46.635Z,3.30
2023-03-02T23:18:26.606Z,3.20
2023-03-02T23:20:53.445Z,3.30
2023-03-02T23:23:22.603Z,3.30
2023-03-02T23:25:49.333Z,3.20
2023-03-02T23:28:16.423Z,3.20
2023-03-02T23:30:43.232Z,3.10
2023-03-02T23:33:09.835Z,3.10
2023-03-02T23:35:36.504Z,3.10
2023-03-02T23:38:03.189Z,3.20
2023-03-02T23:40:29.804Z,3.20
2023-03-02T23:42:56.393Z,3.20
2023-03-02T23:45:23.155Z,3.20
2023-03-02T23:47:49.792Z,3.10
2023-03-02T23:50:16.456Z,3.00
2023-03-02T23:52:43.197Z,3.00
2023-03-02T23:55:10.451Z,2.90
2023-03-02T23:57:37.101Z,2.90
